Time,TemperatureF,DewpointF,PressureIn,WindDirection,WindDirectionDegrees,WindSpeedMPH,WindSpeedGustMPH,Humidity,HourlyPrecipIn,Conditions,Clouds,dailyrainin,SoftwareType,DateUTC
2013-05-28 00:02:00,56.0,55.0,29.81,East,79,9.0,16.0,96,0.00,,,0.35,,2013-05-28 05:02:00,
2013-05-28 00:12:00,56.0,55.0,29.81,East,79,9.0,16.0,96,0.00,,,0.35,,2013-05-28 05:12:00,
2013-05-28 00:22:00,56.0,55.0,29.81,ENE,59,14.0,14.0,96,0.00,,,0.35,,2013-05-28 05:22:00,
2013-05-28 00:33:00,56.0,55.0,29.81,SE,145,4.0,10.0,97,0.00,,,0.35,,2013-05-28 05:33:00,
2013-05-28 00:42:00,56.0,55.0,29.81,SE,145,4.0,10.0,97,0.00,,,0.35,,2013-05-28 05:42:00,
2013-05-28 00:52:00,56.0,55.0,29.78,SE,131,0.0,0.0,97,0.00,,,0.35,,2013-05-28 05:52:00,
2013-05-28 01:02:00,56.0,55.0,29.78,SE,131,0.0,0.0,97,0.00,,,0.35,,2013-05-28 06:02:00,
2013-05-28 01:12:00,56.0,55.0,29.78,SE,131,0.0,0.0,97,0.00,,,0.35,,2013-05-28 06:12:00,
2013-05-28 01:21:00,56.0,55.0,29.78,ENE,78,9.0,12.0,97,0.00,,,0.35,,2013-05-28 06:21:00,
2013-05-28 01:31:00,56.0,55.0,29.78,East,85,6.0,8.0,97,0.00,,,0.35,,2013-05-28 06:31:00,
2013-05-28 01:42:00,56.0,55.0,29.78,East,85,6.0,8.0,97,0.00,,,0.35,,2013-05-28 06:42:00,
2013-05-28 01:52:00,56.0,55.0,29.78,NE,55,6.0,10.0,97,0.00,,,0.35,,2013-05-28 06:52:00,
2013-05-28 02:01:00,56.0,55.0,29.78,East,86,5.0,5.0,97,0.00,,,0.35,,2013-05-28 07:01:00,
2013-05-28 02:11:00,56.0,55.0,29.78,East,86,5.0,5.0,97,0.00,,,0.35,,2013-05-28 07:11:00,
2013-05-28 02:21:00,55.0,54.0,29.75,ENE,76,5.0,10.0,97,0.00,,,0.35,,2013-05-28 07:21:00,
2013-05-28 02:32:00,55.0,54.0,29.75,East,82,0.0,8.0,97,0.00,,,0.35,,2013-05-28 07:32:00,
2013-05-28 02:42:00,55.0,54.0,29.75,East,82,0.0,8.0,97,0.00,,,0.35,,2013-05-28 07:42:00,
2013-05-28 02:52:00,55.0,54.0,29.75,ESE,102,0.0,4.0,97,0.00,,,0.35,,2013-05-28 07:52:00,
2013-05-28 03:02:00,55.0,54.0,29.75,SE,140,6.0,6.0,97,0.00,,,0.35,,2013-05-28 08:02:00,
2013-05-28 03:11:00,55.0,54.0,29.75,SE,140,6.0,6.0,97,0.00,,,0.35,,2013-05-28 08:11:00,
2013-05-28 03:22:00,55.0,54.0,29.75,East,92,0.0,9.0,98,0.00,,,0.35,,2013-05-28 08:22:00,
2013-05-28 03:32:00,55.0,54.0,29.75,ESE,120,5.0,6.0,98,0.00,,,0.35,,2013-05-28 08:32:00,
2013-05-28 03:42:00,55.0,54.0,29.75,ESE,120,5.0,6.0,98,0.00,,,0.35,,2013-05-28 08:42:00,
2013-05-28 03:52:00,55.0,54.0,29.75,SSE,153,6.0,6.0,98,0.00,,,0.35,,2013-05-28 08:52:00,
2013-05-28 04:01:00,55.0,54.0,29.75,North,357,5.0,8.0,98,0.00,,,0.35,,2013-05-28 09:01:00,
2013-05-28 04:11:00,55.0,54.0,29.75,North,357,5.0,8.0,98,0.00,,,0.35,,2013-05-28 09:11:00,
2013-05-28 04:21:00,55.0,54.0,29.75,NE,39,0.0,10.0,98,0.00,,,0.35,,2013-05-28 09:21:00,
2013-05-28 04:33:00,55.0,54.0,29.75,East,99,0.0,0.0,98,0.00,,,0.35,,2013-05-28 09:33:00,
2013-05-28 04:42:00,55.0,54.0,29.75,East,99,0.0,0.0,98,0.00,,,0.35,,2013-05-28 09:42:00,
2013-05-28 04:54:00,55.0,54.0,29.75,ESE,106,3.0,4.0,98,0.00,,,0.35,,2013-05-28 09:54:00,
2013-05-28 05:03:00,55.0,54.0,29.75,ESE,106,3.0,4.0,98,0.00,,,0.35,,2013-05-28 10:03:00,
2013-05-28 05:12:00,55.0,54.0,29.75,ESE,106,3.0,4.0,98,0.00,,,0.35,,2013-05-28 10:12:00,
2013-05-28 05:22:00,55.0,54.0,29.75,East,87,0.0,0.0,98,0.00,,,0.35,,2013-05-28 10:22:00,
2013-05-28 05:32:00,55.0,54.0,29.75,ENE,68,0.0,0.0,98,0.00,,,0.35,,2013-05-28 10:32:00,
2013-05-28 05:43:00,55.0,54.0,29.75,ENE,68,0.0,0.0,98,0.00,,,0.35,,2013-05-28 10:43:00,
2013-05-28 05:53:00,55.0,54.0,29.72,East,92,8.0,8.0,98,0.00,,,0.35,,2013-05-28 10:53:00,
2013-05-28 06:02:00,55.0,54.0,29.69,East,88,3.0,3.0,98,0.00,,,0.35,,2013-05-28 11:02:00,
2013-05-28 06:11:00,55.0,54.0,29.69,East,88,3.0,3.0,98,0.00,,,0.35,,2013-05-28 11:11:00,
2013-05-28 06:22:00,55.0,54.0,29.69,ENE,65,6.0,6.0,98,0.00,,,0.35,,2013-05-28 11:22:00,
2013-05-28 06:32:00,55.0,54.0,29.69,ENE,59,3.0,3.0,98,0.00,,,0.35,,2013-05-28 11:32:00,
2013-05-28 06:42:00,55.0,54.0,29.69,ENE,59,3.0,3.0,98,0.00,,,0.35,,2013-05-28 11:42:00,
2013-05-28 06:52:00,55.0,54.0,29.69,ENE,59,3.0,3.0,98,0.00,,,0.28,,2013-05-28 11:52:00,
2013-05-28 07:01:00,55.0,54.0,29.69,ENE,59,3.0,3.0,98,0.00,,,0.28,,2013-05-28 12:01:00,
2013-05-28 07:11:00,55.0,54.0,29.69,ENE,59,3.0,3.0,98,0.00,,,0.28,,2013-05-28 12:11:00,
2013-05-28 07:21:00,55.0,54.0,29.72,ENE,59,6.0,6.0,98,0.00,,,0.28,,2013-05-28 12:21:00,
2013-05-28 07:31:00,55.0,54.0,29.69,ENE,59,6.0,6.0,98,0.00,,,0.28,,2013-05-28 12:31:00,
2013-05-28 07:42:00,55.0,54.0,29.69,ENE,59,6.0,6.0,98,0.00,,,0.28,,2013-05-28 12:42:00,
2013-05-28 07:52:00,55.0,54.0,29.69,ENE,59,6.0,6.0,98,0.00,,,0.28,,2013-05-28 12:52:00,
2013-05-28 08:01:00,55.0,54.0,29.72,ENE,59,6.0,6.0,98,0.00,,,0.28,,2013-05-28 13:01:00,
2013-05-28 08:11:00,55.0,54.0,29.72,ENE,59,6.0,6.0,98,0.00,,,0.28,,2013-05-28 13:11:00,
2013-05-28 08:21:00,55.0,54.0,29.72,ENE,59,6.0,6.0,98,0.00,,,0.24,,2013-05-28 13:21:00,
2013-05-28 08:32:00,55.0,54.0,29.72,ENE,59,6.0,6.0,98,0.00,,,0.24,,2013-05-28 13:32:00,
2013-05-28 08:42:00,55.0,54.0,29.72,ENE,59,6.0,6.0,98,0.00,,,0.24,,2013-05-28 13:42:00,
2013-05-28 08:52:00,55.0,54.0,29.72,SE,126,0.0,6.0,98,0.00,,,0.24,,2013-05-28 13:52:00,
2013-05-28 09:02:00,55.0,54.0,29.72,East,97,0.0,0.0,98,0.00,,,0.24,,2013-05-28 14:02:00,
2013-05-28 09:11:00,55.0,54.0,29.72,East,97,0.0,0.0,98,0.00,,,0.24,,2013-05-28 14:11:00,
2013-05-28 09:21:00,55.0,54.0,29.72,East,88,0.0,0.0,98,0.00,,,0.24,,2013-05-28 14:21:00,
2013-05-28 09:32:00,55.0,54.0,29.72,ESE,106,0.0,0.0,98,0.00,,,0.24,,2013-05-28 14:32:00,
2013-05-28 09:42:00,55.0,54.0,29.72,ESE,106,0.0,0.0,98,0.00,,,0.24,,2013-05-28 14:42:00,
2013-05-28 09:52:00,55.0,54.0,29.72,SE,128,0.0,0.0,98,0.00,,,0.24,,2013-05-28 14:52:00,
2013-05-28 10:01:00,55.0,54.0,29.72,SE,128,0.0,0.0,98,0.00,,,0.24,,2013-05-28 15:01:00,
2013-05-28 10:11:00,55.0,54.0,29.72,SE,128,0.0,0.0,98,0.00,,,0.24,,2013-05-28 15:11:00,
2013-05-28 10:21:00,55.0,54.0,29.75,ESE,123,0.0,0.0,98,0.00,,,0.16,,2013-05-28 15:21:00,
2013-05-28 10:33:00,55.0,54.0,29.75,East,88,0.0,0.0,98,0.00,,,0.16,,2013-05-28 15:33:00,
2013-05-28 10:43:00,55.0,54.0,29.75,East,88,0.0,0.0,98,0.00,,,0.16,,2013-05-28 15:43:00,
2013-05-28 10:53:00,55.0,54.0,29.72,SSE,159,0.0,0.0,98,0.00,,,0.12,,2013-05-28 15:53:00,
2013-05-28 11:03:00,55.0,54.0,29.72,East,83,0.0,0.0,98,0.00,,,0.08,,2013-05-28 16:03:00,
2013-05-28 11:12:00,55.0,54.0,29.72,East,83,0.0,0.0,98,0.00,,,0.08,,2013-05-28 16:12:00,
2013-05-28 11:22:00,55.0,54.0,29.72,ENE,67,0.0,0.0,98,0.00,,,0.08,,2013-05-28 16:22:00,
2013-05-28 11:33:00,55.0,54.0,29.72,ESE,118,0.0,0.0,98,0.00,,,0.04,,2013-05-28 16:33:00,
2013-05-28 11:42:00,55.0,54.0,29.72,ESE,118,0.0,0.0,98,0.00,,,0.04,,2013-05-28 16:42:00,
2013-05-28 11:52:00,55.0,54.0,29.72,East,101,0.0,0.0,98,0.00,,,0.04,,2013-05-28 16:52:00,
2013-05-28 12:02:00,55.0,54.0,29.72,East,101,0.0,0.0,98,0.00,,,0.04,,2013-05-28 17:02:00,
2013-05-28 12:12:00,55.0,54.0,29.72,East,101,0.0,0.0,98,0.00,,,0.04,,2013-05-28 17:12:00,
2013-05-28 12:22:00,55.0,54.0,29.72,East,101,0.0,0.0,98,0.00,,,0.04,,2013-05-28 17:22:00,
2013-05-28 12:32:00,66.0,54.0,29.72,East,101,0.0,0.0,65,0.00,,,0.04,,2013-05-28 17:32:00,
2013-05-28 12:42:00,67.0,54.0,29.72,East,101,0.0,0.0,64,0.00,,,0.04,,2013-05-28 17:42:00,
2013-05-28 12:52:00,67.0,54.0,29.72,East,101,0.0,0.0,64,0.00,,,0.04,,2013-05-28 17:52:00,
2013-05-28 13:01:00,66.0,54.0,29.72,SSW,205,5.0,8.0,66,0.00,,,0.04,,2013-05-28 18:01:00,
2013-05-28 13:11:00,66.0,54.0,29.72,SSW,205,5.0,8.0,66,0.00,,,0.04,,2013-05-28 18:11:00,
2013-05-28 13:21:00,66.0,56.0,29.72,SSW,201,3.0,3.0,70,0.00,,,0.04,,2013-05-28 18:21:00,
2013-05-28 13:32:00,66.0,56.0,29.72,SW,235,6.0,6.0,69,0.00,,,0.04,,2013-05-28 18:32:00,
2013-05-28 13:42:00,67.0,56.0,29.72,SSW,203,0.0,4.0,69,0.00,,,0.04,,2013-05-28 18:42:00,
2013-05-28 13:52:00,67.0,56.0,29.72,SSW,203,0.0,4.0,69,0.00,,,0.04,,2013-05-28 18:52:00,
2013-05-28 14:01:00,68.0,56.0,29.72,SSE,167,3.0,3.0,66,0.00,,,0.04,,2013-05-28 19:01:00,
2013-05-28 14:11:00,68.0,56.0,29.72,SSE,167,3.0,3.0,66,0.00,,,0.04,,2013-05-28 19:11:00,
2013-05-28 14:21:00,67.0,55.0,29.72,SSE,167,0.0,0.0,65,0.00,,,0.04,,2013-05-28 19:21:00,
2013-05-28 14:32:00,68.0,56.0,29.72,NNE,21,0.0,0.0,66,0.00,,,0.04,,2013-05-28 19:32:00,
2013-05-28 14:41:00,68.0,56.0,29.72,NNE,21,0.0,0.0,66,0.00,,,0.04,,2013-05-28 19:41:00,
2013-05-28 14:52:00,67.0,56.0,29.72,SW,226,4.0,8.0,67,0.00,,,0.04,,2013-05-28 19:52:00,
2013-05-28 15:01:00,69.0,57.0,29.72,SW,223,0.0,0.0,65,0.00,,,0.04,,2013-05-28 20:01:00,
2013-05-28 15:11:00,69.0,57.0,29.72,SW,223,0.0,0.0,65,0.00,,,0.04,,2013-05-28 20:11:00,
2013-05-28 15:22:00,72.0,55.0,29.72,SSW,199,6.0,6.0,55,0.00,,,0.04,,2013-05-28 20:22:00,
2013-05-28 15:32:00,72.0,54.0,29.72,South,174,6.0,6.0,53,0.00,,,0.04,,2013-05-28 20:32:00,
2013-05-28 15:42:00,72.0,54.0,29.72,South,174,6.0,6.0,53,0.00,,,0.04,,2013-05-28 20:42:00,
2013-05-28 15:52:00,72.0,54.0,29.72,WNW,300,3.0,6.0,53,0.00,,,0.04,,2013-05-28 20:52:00,
2013-05-28 16:01:00,70.0,55.0,29.75,West,267,0.0,0.0,60,0.00,,,0.04,,2013-05-28 21:01:00,
2013-05-28 16:11:00,69.0,55.0,29.75,WNW,286,4.0,4.0,62,0.00,,,0.04,,2013-05-28 21:11:00,
2013-05-28 16:21:00,69.0,55.0,29.75,WNW,286,4.0,4.0,62,0.00,,,0.04,,2013-05-28 21:21:00,
2013-05-28 16:33:00,70.0,56.0,29.75,NW,317,3.0,3.0,62,0.00,,,0.04,,2013-05-28 21:33:00,
2013-05-28 16:43:00,69.0,56.0,29.75,WNW,294,0.0,0.0,64,0.00,,,0.04,,2013-05-28 21:43:00,
2013-05-28 16:53:00,69.0,56.0,29.75,WNW,294,0.0,0.0,64,0.00,,,0.04,,2013-05-28 21:53:00,
2013-05-28 17:02:00,67.0,56.0,29.75,NW,317,3.0,3.0,69,0.00,,,0.04,,2013-05-28 22:02:00,
2013-05-28 17:12:00,67.0,57.0,29.75,NNE,19,4.0,4.0,70,0.00,,,0.04,,2013-05-28 22:12:00,
2013-05-28 17:22:00,67.0,57.0,29.75,NNE,19,4.0,4.0,70,0.00,,,0.04,,2013-05-28 22:22:00,
2013-05-28 17:32:00,68.0,57.0,29.75,NNE,19,4.0,4.0,69,0.00,,,0.04,,2013-05-28 22:32:00,
2013-05-28 17:42:00,68.0,56.0,29.75,NNE,19,4.0,4.0,66,0.00,,,0.04,,2013-05-28 22:42:00,
2013-05-28 17:52:00,68.0,56.0,29.75,NNE,19,4.0,4.0,66,0.00,,,0.04,,2013-05-28 22:52:00,
2013-05-28 18:02:00,68.0,57.0,29.75,NNE,19,4.0,4.0,67,0.00,,,0.04,,2013-05-28 23:02:00,
2013-05-28 18:11:00,67.0,56.0,29.75,NNE,19,4.0,4.0,68,0.00,,,0.04,,2013-05-28 23:11:00,
2013-05-28 18:21:00,67.0,56.0,29.75,NNE,19,4.0,4.0,68,0.00,,,0.04,,2013-05-28 23:21:00,
2013-05-28 18:32:00,67.0,57.0,29.75,NNE,19,4.0,4.0,70,0.00,,,0.04,,2013-05-28 23:32:00,
2013-05-28 18:42:00,67.0,57.0,29.75,NNE,19,4.0,4.0,70,0.00,,,0.04,,2013-05-28 23:42:00,
2013-05-28 18:52:00,67.0,57.0,29.75,NW,305,0.0,0.0,71,0.00,,,0.04,,2013-05-28 23:52:00,
2013-05-28 19:02:00,68.0,57.0,29.75,NNW,334,0.0,0.0,69,0.00,,,0.04,,2013-05-29 00:02:00,
2013-05-28 19:11:00,68.0,57.0,29.75,NNW,334,0.0,0.0,69,0.00,,,0.04,,2013-05-29 00:11:00,
2013-05-28 19:21:00,68.0,56.0,29.75,NNW,334,0.0,0.0,66,0.00,,,0.00,,2013-05-29 00:21:00,
2013-05-28 19:32:00,67.0,56.0,29.75,NNW,334,0.0,0.0,67,0.00,,,0.00,,2013-05-29 00:32:00,
2013-05-28 19:41:00,67.0,56.0,29.75,NNW,334,0.0,0.0,67,0.00,,,0.00,,2013-05-29 00:41:00,
2013-05-28 19:52:00,67.0,56.0,29.75,NNW,334,0.0,0.0,69,0.00,,,0.00,,2013-05-29 00:52:00,
2013-05-28 20:01:00,66.0,57.0,29.72,NNW,334,0.0,0.0,72,0.00,,,0.00,,2013-05-29 01:01:00,
2013-05-28 20:11:00,66.0,57.0,29.72,NNW,334,0.0,0.0,72,0.00,,,0.00,,2013-05-29 01:11:00,
2013-05-28 20:22:00,66.0,58.0,29.69,NNW,334,0.0,0.0,75,0.00,,,0.00,,2013-05-29 01:22:00,
2013-05-28 20:32:00,65.0,58.0,29.72,NNW,334,0.0,0.0,77,0.00,,,0.00,,2013-05-29 01:32:00,
2013-05-28 20:42:00,65.0,58.0,29.72,NNW,334,0.0,0.0,77,0.00,,,0.00,,2013-05-29 01:42:00,
2013-05-28 20:52:00,64.0,57.0,29.72,NNW,334,0.0,0.0,78,0.00,,,0.00,,2013-05-29 01:52:00,
2013-05-28 21:02:00,64.0,57.0,29.72,North,357,4.0,4.0,79,0.00,,,0.00,,2013-05-29 02:02:00,
2013-05-28 21:12:00,64.0,57.0,29.72,North,357,0.0,0.0,79,0.00,,,0.00,,2013-05-29 02:12:00,
2013-05-28 21:21:00,64.0,57.0,29.72,North,357,0.0,0.0,79,0.00,,,0.00,,2013-05-29 02:21:00,
2013-05-28 21:32:00,63.0,57.0,29.75,North,357,0.0,0.0,80,0.00,,,0.00,,2013-05-29 02:32:00,
2013-05-28 21:42:00,63.0,57.0,29.75,North,357,0.0,0.0,80,0.00,,,0.00,,2013-05-29 02:42:00,
2013-05-28 21:51:00,63.0,57.0,29.75,North,357,0.0,0.0,80,0.00,,,0.00,,2013-05-29 02:51:00,
2013-05-28 22:02:00,63.0,57.0,29.78,North,357,0.0,0.0,81,0.00,,,0.00,,2013-05-29 03:02:00,
2013-05-28 22:12:00,63.0,57.0,29.78,North,357,0.0,0.0,81,0.00,,,0.00,,2013-05-29 03:12:00,
2013-05-28 22:21:00,63.0,57.0,29.78,North,357,0.0,0.0,81,0.00,,,0.00,,2013-05-29 03:21:00,
2013-05-28 22:33:00,63.0,57.0,29.78,North,357,0.0,0.0,80,0.00,,,0.00,,2013-05-29 03:33:00,
2013-05-28 22:43:00,63.0,57.0,29.78,North,357,0.0,0.0,80,0.00,,,0.00,,2013-05-29 03:43:00,
2013-05-28 22:53:00,63.0,57.0,29.78,North,357,0.0,0.0,81,0.00,,,0.00,,2013-05-29 03:53:00,
2013-05-28 23:02:00,63.0,57.0,29.81,North,357,0.0,0.0,81,0.00,,,0.00,,2013-05-29 04:02:00,
2013-05-28 23:12:00,63.0,57.0,29.81,North,357,0.0,0.0,81,0.00,,,0.00,,2013-05-29 04:12:00,
2013-05-28 23:23:00,63.0,57.0,29.81,North,357,0.0,0.0,81,0.00,,,0.00,,2013-05-29 04:23:00,
2013-05-28 23:33:00,63.0,57.0,29.81,North,357,0.0,0.0,81,0.00,,,0.00,,2013-05-29 04:33:00,
2013-05-28 23:42:00,63.0,57.0,29.81,North,357,0.0,0.0,81,0.00,,,0.00,,2013-05-29 04:42:00,
2013-05-28 23:52:00,62.0,56.0,29.81,North,357,0.0,0.0,82,0.00,,,0.00,,2013-05-29 04:52:00,